Time,TemperatureF,DewpointF,PressureIn,WindDirection,WindDirectionDegrees,WindSpeedMPH,WindSpeedGustMPH,Humidity,HourlyPrecipIn,Conditions,Clouds,dailyrainin,SoftwareType,DateUTC
2013-09-12 00:00:00,57.0,55.9,30.03,NNW,338,0.0,0.0,96,0.00,,SKC,0.00,VWS V14.01,2013-09-12 05:00:00,
2013-09-12 00:20:00,56.3,55.2,30.03,ESE,112,0.0,0.0,96,0.00,,SKC,0.00,VWS V14.01,2013-09-12 05:20:00,
2013-09-12 00:40:00,55.6,54.5,30.03,ESE,112,0.0,0.0,96,0.00,,SKC,0.00,VWS V14.01,2013-09-12 05:40:00,
2013-09-12 01:00:00,56.1,55.6,30.06,SSE,158,0.0,0.0,98,0.00,,SKC,0.00,VWS V14.01,2013-09-12 06:00:00,
2013-09-12 01:20:00,57.0,56.5,30.06,NNW,338,0.0,5.5,98,0.00,,SKC,0.00,VWS V14.01,2013-09-12 06:20:00,
2013-09-12 01:39:00,56.8,56.3,30.06,East,90,0.0,2.0,98,0.00,,SKC,0.00,VWS V14.01,2013-09-12 06:39:00,
2013-09-12 01:40:00,56.8,56.3,30.06,East,90,0.0,2.0,98,0.00,,SKC,0.00,VWS V14.01,2013-09-12 06:40:00,
2013-09-12 02:00:00,56.1,55.6,30.06,WNW,292,0.0,0.0,98,0.00,,SKC,0.00,VWS V14.01,2013-09-12 07:00:00,
2013-09-12 02:20:00,55.4,54.8,30.06,ESE,112,0.0,0.0,98,0.00,,SKC,0.00,VWS V14.01,2013-09-12 07:20:00,
2013-09-12 02:40:00,54.7,54.1,30.06,SSE,158,0.0,0.0,98,0.00,,SKC,0.00,VWS V14.01,2013-09-12 07:40:00,
2013-09-12 03:00:00,54.3,53.8,30.09,SSW,202,0.0,0.0,98,0.00,,SKC,0.00,VWS V14.01,2013-09-12 08:00:00,
2013-09-12 03:20:00,53.4,52.9,30.09,SSW,202,0.0,0.0,98,0.00,,SKC,0.00,VWS V14.01,2013-09-12 08:20:00,
2013-09-12 04:20:00,53.2,52.7,30.09,ESE,112,0.0,0.0,98,0.00,,SKC,0.00,VWS V14.01,2013-09-12 09:20:00,
2013-09-12 04:40:00,53.2,52.7,30.09,West,270,0.0,0.0,98,0.00,,SKC,0.00,VWS V14.01,2013-09-12 09:40:00,
2013-09-12 05:00:00,53.6,53.0,30.09,ESE,112,0.0,4.3,98,0.00,,SKC,0.00,VWS V14.01,2013-09-12 10:00:00,
2013-09-12 05:20:00,53.8,53.2,30.09,ESE,112,0.0,3.9,98,0.00,,SKC,0.00,VWS V14.01,2013-09-12 10:20:00,
2013-09-12 05:40:00,54.1,53.6,30.09,ESE,112,0.0,1.6,98,0.00,,SKC,0.00,VWS V14.01,2013-09-12 10:40:00,
2013-09-12 06:00:00,54.1,53.6,30.09,NW,315,0.0,0.0,98,0.00,,SKC,0.00,VWS V14.01,2013-09-12 11:00:00,
2013-09-12 06:20:00,54.3,53.8,30.09,NNE,22,1.3,3.9,98,0.04,,SKC,0.04,VWS V14.01,2013-09-12 11:20:00,
2013-09-12 06:40:00,54.3,53.8,30.12,NNE,22,0.0,4.7,98,0.04,,SKC,0.04,VWS V14.01,2013-09-12 11:40:00,
2013-09-12 07:00:00,54.5,54.0,30.12,ENE,68,0.0,4.7,98,0.04,,SKC,0.04,VWS V14.01,2013-09-12 12:00:00,
2013-09-12 07:20:00,54.5,54.0,30.12,NW,315,0.0,5.1,98,0.04,,SKC,0.04,VWS V14.01,2013-09-12 12:20:00,
2013-09-12 07:40:00,54.7,54.1,30.12,SW,225,1.0,6.7,98,0.00,,SKC,0.04,VWS V14.01,2013-09-12 12:40:00,
2013-09-12 08:00:00,55.4,54.8,30.12,SSE,158,0.0,3.9,98,0.00,,SKC,0.04,VWS V14.01,2013-09-12 13:00:00,
2013-09-12 08:20:00,55.8,54.9,30.12,NW,315,1.8,5.1,97,0.00,,SKC,0.04,VWS V14.01,2013-09-12 13:20:00,
2013-09-12 08:40:00,56.1,55.3,30.12,SSE,158,0.0,5.5,97,0.00,,SKC,0.04,VWS V14.01,2013-09-12 13:40:00,
2013-09-12 09:00:00,56.7,55.5,30.12,NW,315,1.0,5.1,96,0.00,,SKC,0.04,VWS V14.01,2013-09-12 14:00:00,
2013-09-12 09:20:00,56.8,55.1,30.15,NNE,22,0.0,6.3,94,0.00,,SKC,0.04,VWS V14.01,2013-09-12 14:20:00,
2013-09-12 09:40:00,57.4,54.8,30.12,NNW,338,0.0,5.9,91,0.00,,SKC,0.04,VWS V14.01,2013-09-12 14:40:00,
2013-09-12 10:00:00,58.6,56.0,30.15,WNW,292,2.3,5.1,91,0.00,,SKC,0.04,VWS V14.01,2013-09-12 15:00:00,
2013-09-12 10:20:00,59.5,54.0,30.15,NW,315,3.1,6.3,82,0.00,,SKC,0.04,VWS V14.01,2013-09-12 15:20:00,
2013-09-12 10:40:00,61.0,53.4,30.15,NNW,338,3.3,5.5,76,0.00,,SKC,0.04,VWS V14.01,2013-09-12 15:40:00,
2013-09-12 11:20:00,60.6,51.6,30.15,SSE,158,1.8,7.0,72,0.00,,SKC,0.04,VWS V14.01,2013-09-12 16:20:00,
2013-09-12 11:40:00,61.0,51.1,30.15,ESE,112,3.1,6.3,70,0.00,,SKC,0.04,VWS V14.01,2013-09-12 16:40:00,
2013-09-12 12:00:00,62.2,51.2,30.15,WNW,292,2.3,7.0,67,0.00,,SKC,0.04,VWS V14.01,2013-09-12 17:00:00,
2013-09-12 12:20:00,63.0,51.8,30.18,WNW,292,2.3,11.4,67,0.00,,SKC,0.04,VWS V14.01,2013-09-12 17:20:00,
2013-09-12 12:40:00,62.8,49.6,30.18,WSW,248,6.2,9.4,62,0.00,,SKC,0.04,VWS V14.01,2013-09-12 17:40:00,
2013-09-12 13:00:00,62.6,48.5,30.18,NNW,338,3.3,9.4,60,0.00,,SKC,0.04,VWS V14.01,2013-09-12 18:00:00,
2013-09-12 13:20:00,63.5,47.5,30.18,WSW,248,2.3,8.6,56,0.00,,SKC,0.04,VWS V14.01,2013-09-12 18:20:00,
2013-09-12 13:40:00,63.0,45.6,30.18,NNW,338,2.3,9.4,53,0.00,,SKC,0.04,VWS V14.01,2013-09-12 18:40:00,
2013-09-12 14:00:00,62.1,46.2,30.18,ESE,112,3.3,9.8,56,0.00,,SKC,0.04,VWS V14.01,2013-09-12 19:00:00,
2013-09-12 14:20:00,64.0,49.4,30.18,NW,315,2.3,8.6,59,0.00,,SKC,0.04,VWS V14.01,2013-09-12 19:20:00,
2013-09-12 14:40:00,64.2,48.7,30.21,North,0,2.3,10.2,57,0.00,,SKC,0.04,VWS V14.01,2013-09-12 19:40:00,
2013-09-12 15:00:00,63.3,46.9,30.18,NNW,338,1.8,8.6,55,0.00,,SKC,0.04,VWS V14.01,2013-09-12 20:00:00,
2013-09-12 15:20:00,63.9,46.9,30.18,ENE,68,1.5,6.7,54,0.00,,SKC,0.04,VWS V14.01,2013-09-12 20:20:00,
2013-09-12 15:40:00,62.6,45.7,30.18,WNW,292,2.3,6.7,54,0.00,,SKC,0.04,VWS V14.01,2013-09-12 20:40:00,
2013-09-12 16:00:00,62.1,46.7,30.18,WNW,292,1.5,5.9,57,0.00,,SKC,0.04,VWS V14.01,2013-09-12 21:00:00,
2013-09-12 16:20:00,63.0,46.6,30.18,SSE,158,1.3,6.7,55,0.00,,SKC,0.04,VWS V14.01,2013-09-12 21:20:00,
2013-09-12 16:40:00,63.7,47.7,30.18,NW,315,2.3,4.7,56,0.00,,SKC,0.04,VWS V14.01,2013-09-12 21:40:00,
2013-09-12 17:00:00,63.3,47.8,30.18,NE,45,1.8,6.7,57,0.00,,SKC,0.04,VWS V14.01,2013-09-12 22:00:00,
2013-09-12 17:20:00,62.2,47.8,30.18,NNE,22,1.0,13.7,59,0.00,,SKC,0.04,VWS V14.01,2013-09-12 22:20:00,
2013-09-12 17:40:00,61.2,48.5,30.18,NNE,22,0.0,6.7,63,0.00,,SKC,0.04,VWS V14.01,2013-09-12 22:40:00,
2013-09-12 18:00:00,60.1,47.9,30.21,SSE,158,0.0,6.7,64,0.00,,SKC,0.04,VWS V14.01,2013-09-12 23:00:00,
2013-09-12 18:20:00,59.4,48.0,30.21,East,90,1.3,7.4,66,0.00,,SKC,0.04,VWS V14.01,2013-09-12 23:20:00,
2013-09-12 18:40:00,58.3,48.2,30.18,NNE,22,1.5,4.7,69,0.00,,SKC,0.04,VWS V14.01,2013-09-12 23:40:00,
2013-09-12 19:00:00,57.4,47.7,30.21,NE,45,1.5,3.9,70,0.00,,SKC,0.04,VWS V14.01,2013-09-13 00:00:00,
2013-09-12 19:20:00,56.1,47.6,30.21,NE,45,1.0,3.9,73,0.00,,SKC,0.04,VWS V14.01,2013-09-13 00:20:00,
2013-09-12 19:40:00,54.9,47.5,30.21,ENE,68,0.0,3.9,76,0.00,,SKC,0.04,VWS V14.01,2013-09-13 00:40:00,
2013-09-12 20:00:00,53.4,47.1,30.21,ENE,68,0.0,0.0,79,0.00,,SKC,0.04,VWS V14.01,2013-09-13 01:00:00,
2013-09-12 20:20:00,52.5,46.9,30.21,ENE,68,0.0,0.0,81,0.00,,SKC,0.04,VWS V14.01,2013-09-13 01:20:00,
2013-09-12 20:40:00,51.1,46.1,30.21,ENE,68,0.0,0.0,83,0.00,,SKC,0.04,VWS V14.01,2013-09-13 01:40:00,
2013-09-12 21:00:00,50.4,45.7,30.21,East,90,0.0,0.0,84,0.00,,SKC,0.04,VWS V14.01,2013-09-13 02:00:00,
2013-09-12 21:20:00,49.8,45.8,30.21,East,90,0.0,0.0,86,0.00,,SKC,0.04,VWS V14.01,2013-09-13 02:20:00,
2013-09-12 21:40:00,48.7,44.8,30.24,East,90,0.0,0.0,86,0.00,,SKC,0.04,VWS V14.01,2013-09-13 02:40:00,
2013-09-12 22:00:00,47.7,44.3,30.21,East,90,0.0,0.0,88,0.00,,SKC,0.04,VWS V14.01,2013-09-13 03:00:00,
2013-09-12 22:20:00,46.9,43.9,30.21,East,90,0.0,0.0,89,0.00,,SKC,0.04,VWS V14.01,2013-09-13 03:20:00,
2013-09-12 22:40:00,46.4,43.6,30.24,East,90,0.0,0.0,90,0.00,,SKC,0.04,VWS V14.01,2013-09-13 03:40:00,
2013-09-12 23:00:00,45.7,42.9,30.21,East,90,0.0,0.0,90,0.00,,SKC,0.04,VWS V14.01,2013-09-13 04:00:00,
2013-09-12 23:20:00,45.3,42.8,30.24,East,90,0.0,0.0,91,0.00,,SKC,0.04,VWS V14.01,2013-09-13 04:20:00,
2013-09-12 23:40:00,44.8,42.3,30.21,East,90,0.0,0.0,91,0.00,,SKC,0.04,VWS V14.01,2013-09-13 04:40:00,